createdAt,value
2022-11-19T00:00:15.036Z,2.90
2022-11-19T00:03:20.505Z,2.81
2022-11-19T00:06:27.721Z,2.75
2022-11-19T00:09:30.564Z,2.61
2022-11-19T00:12:51.856Z,2.40
2022-11-19T00:15:54.719Z,2.25
2022-11-19T00:18:57.359Z,2.12
2022-11-19T00:22:00.232Z,2.16
2022-11-19T00:25:02.900Z,2.21
2022-11-19T00:28:06.931Z,2.18
2022-11-19T00:31:12.458Z,2.18
2022-11-19T00:34:15.398Z,2.28
2022-11-19T00:37:21.388Z,2.31
2022-11-19T00:40:24.359Z,2.16
2022-11-19T00:43:46.088Z,2.04
2022-11-19T00:46:49.066Z,1.98
2022-11-19T00:49:51.760Z,2.00
2022-11-19T00:52:54.728Z,2.04
2022-11-19T00:56:06.837Z,1.90
2022-11-19T00:59:09.827Z,1.92
2022-11-19T01:02:12.392Z,1.91
2022-11-19T01:05:15.392Z,1.99
2022-11-19T01:08:18.658Z,1.89
2022-11-19T01:11:24.894Z,1.93
2022-11-19T01:14:27.508Z,1.74
2022-11-19T01:17:30.401Z,1.69
2022-11-19T01:20:33.016Z,1.64
2022-11-19T01:23:35.872Z,1.60
2022-11-19T01:26:42.897Z,1.46
2022-11-19T01:29:48.359Z,1.60
2022-11-19T01:32:50.966Z,1.74
2022-11-19T01:36:01.886Z,1.82
2022-11-19T01:39:04.411Z,1.91
2022-11-19T01:42:30.655Z,1.82
2022-11-19T01:45:42.012Z,1.85
2022-11-19T01:49:10.732Z,2.01
2022-11-19T01:52:13.453Z,1.82
2022-11-19T01:55:19.015Z,1.81
2022-11-19T01:58:24.503Z,1.73
2022-11-19T02:01:29.228Z,1.75
2022-11-19T02:04:33.455Z,1.81
2022-11-19T02:07:38.433Z,1.83
2022-11-19T02:11:04.953Z,1.88
2022-11-19T02:14:24.164Z,2.00
2022-11-19T02:17:26.975Z,2.12
2022-11-19T02:20:46.668Z,2.15
2022-11-19T02:24:01.924Z,2.15
2022-11-19T02:27:25.951Z,2.11
2022-11-19T02:30:39.540Z,2.18
2022-11-19T02:34:01.471Z,2.20
2022-11-19T02:37:16.667Z,2.03
2022-11-19T02:40:43.002Z,2.13
2022-11-19T02:43:46.688Z,2.12
2022-11-19T02:46:53.715Z,2.18
2022-11-19T02:50:02.002Z,2.19
2022-11-19T02:53:04.947Z,2.11
2022-11-19T02:56:18.016Z,2.08
2022-11-19T03:00:11.301Z,2.13
2022-11-19T03:03:36.802Z,2.23
2022-11-19T03:06:39.998Z,2.15
2022-11-19T03:10:03.318Z,2.14
2022-11-19T03:13:34.334Z,2.01
2022-11-19T03:16:46.249Z,1.93
2022-11-19T03:20:18.476Z,1.87
2022-11-19T03:23:29.676Z,1.95
2022-11-19T03:26:37.360Z,1.86
2022-11-19T03:29:46.858Z,1.85
2022-11-19T03:32:55.337Z,1.75
2022-11-19T03:36:26.765Z,1.70
2022-11-19T03:39:29.747Z,1.73
2022-11-19T03:42:34.005Z,1.81
2022-11-19T03:45:40.918Z,1.90
2022-11-19T03:48:46.699Z,1.92
2022-11-19T03:51:59.498Z,1.87
2022-11-19T03:55:02.493Z,1.94
2022-11-19T03:58:07.105Z,1.96
2022-11-19T04:01:10.829Z,1.85
2022-11-19T04:04:32.463Z,1.81
2022-11-19T04:07:35.469Z,1.82
2022-11-19T04:10:38.518Z,1.83
2022-11-19T04:13:41.054Z,1.86
2022-11-19T04:16:44.021Z,1.83
2022-11-19T04:19:47.019Z,1.73
2022-11-19T04:22:53.066Z,1.71
2022-11-19T04:25:55.707Z,1.84
2022-11-19T04:28:59.016Z,1.66
2022-11-19T04:32:01.583Z,1.65
2022-11-19T04:35:06.068Z,1.54
2022-11-19T04:38:08.675Z,1.66
2022-11-19T04:41:11.676Z,1.62
2022-11-19T04:44:14.261Z,1.63
2022-11-19T04:47:17.257Z,1.52
2022-11-19T04:50:20.068Z,1.51
2022-11-19T04:53:23.097Z,1.38
2022-11-19T04:56:27.862Z,1.32
2022-11-19T04:59:30.715Z,1.45
2022-11-19T05:02:33.299Z,1.38
2022-11-19T05:05:36.235Z,1.34
2022-11-19T05:08:38.887Z,1.28
2022-11-19T05:11:41.777Z,1.24
2022-11-19T05:14:45.173Z,1.19
2022-11-19T05:17:48.379Z,1.15
2022-11-19T05:20:50.929Z,1.21
2022-11-19T05:23:53.758Z,1.25
2022-11-19T05:26:56.321Z,1.22
2022-11-19T05:29:59.203Z,1.28
2022-11-19T05:33:02.046Z,1.40
2022-11-19T05:36:05.406Z,1.42
2022-11-19T05:39:08.008Z,1.53
2022-11-19T05:42:11.118Z,1.49
2022-11-19T05:45:13.817Z,1.32
2022-11-19T05:48:17.771Z,1.28
2022-11-19T05:51:20.618Z,1.27
2022-11-19T05:54:23.628Z,1.51
2022-11-19T05:57:26.258Z,1.43
2022-11-19T06:00:29.386Z,1.51
2022-11-19T06:03:32.550Z,1.56
2022-11-19T06:06:35.146Z,1.57
2022-11-19T06:09:38.152Z,1.62
2022-11-19T06:12:45.770Z,1.57
2022-11-19T06:15:49.295Z,1.58
2022-11-19T06:18:51.930Z,1.51
2022-11-19T06:21:54.990Z,1.45
2022-11-19T06:24:57.610Z,1.46
2022-11-19T06:28:00.484Z,1.48
2022-11-19T06:31:03.453Z,1.43
2022-11-19T06:34:07.082Z,1.47
2022-11-19T06:37:09.761Z,1.48
2022-11-19T06:40:13.588Z,1.54
2022-11-19T06:43:16.229Z,1.55
2022-11-19T06:46:19.289Z,1.56
2022-11-19T06:49:22.214Z,1.67
2022-11-19T06:52:26.212Z,1.69
2022-11-19T06:55:30.124Z,1.73
2022-11-19T06:58:33.556Z,1.72
2022-11-19T07:01:36.159Z,1.84
2022-11-19T07:04:39.403Z,1.79
2022-11-19T07:07:42.068Z,1.74
2022-11-19T07:10:45.157Z,1.74
2022-11-19T07:14:00.305Z,1.82
2022-11-19T07:17:03.896Z,1.94
2022-11-19T07:20:07.653Z,2.06
2022-11-19T07:23:11.411Z,2.11
2022-11-19T07:26:14.481Z,2.07
2022-11-19T07:29:17.765Z,2.07
2022-11-19T07:32:20.865Z,2.01
2022-11-19T07:35:23.781Z,1.77
2022-11-19T07:38:26.387Z,1.81
2022-11-19T07:41:48.118Z,1.82
2022-11-19T07:44:54.665Z,1.91
2022-11-19T07:47:58.176Z,2.00
2022-11-19T07:51:00.773Z,1.94
2022-11-19T07:54:04.099Z,2.07
2022-11-19T07:57:06.781Z,1.99
2022-11-19T08:00:10.221Z,2.04
2022-11-19T08:03:14.849Z,2.09
2022-11-19T08:06:19.580Z,2.21
2022-11-19T08:09:22.218Z,2.34
2022-11-19T08:12:25.261Z,2.34
2022-11-19T08:15:27.830Z,2.47
2022-11-19T08:18:31.677Z,2.50
2022-11-19T08:21:34.938Z,2.79
2022-11-19T08:24:37.990Z,3.19
2022-11-19T08:27:41.124Z,3.40
2022-11-19T08:30:45.633Z,4.21
2022-11-19T08:33:48.272Z,4.67
2022-11-19T08:36:51.221Z,5.29
2022-11-19T08:39:53.869Z,6.66
2022-11-19T08:43:02.909Z,7.07
2022-11-19T08:46:07.004Z,7.36
2022-11-19T08:49:10.274Z,7.91
2022-11-19T08:52:14.460Z,7.50
2022-11-19T08:55:17.712Z,6.60
2022-11-19T08:58:20.319Z,6.44
2022-11-19T09:01:23.548Z,5.85
2022-11-19T09:04:26.123Z,5.87
2022-11-19T09:07:29.406Z,6.60
2022-11-19T09:10:32.014Z,6.73
2022-11-19T09:13:35.018Z,6.24
2022-11-19T09:16:37.639Z,7.00
2022-11-19T09:19:40.575Z,7.23
2022-11-19T09:22:43.172Z,7.57
2022-11-19T09:25:46.106Z,7.76
2022-11-19T09:28:49.551Z,7.77
2022-11-19T09:31:52.475Z,8.97
2022-11-19T09:34:55.147Z,9.54
2022-11-19T09:37:58.052Z,8.59
2022-11-19T09:41:28.264Z,8.02
2022-11-19T09:44:49.568Z,7.28
2022-11-19T09:48:25.855Z,6.33
2022-11-19T09:51:33.144Z,5.59
2022-11-19T09:54:41.602Z,5.19
2022-11-19T09:57:56.306Z,5.07
2022-11-19T10:00:59.871Z,4.92
2022-11-19T10:04:04.467Z,4.92
2022-11-19T10:07:22.288Z,5.22
2022-11-19T10:10:59.884Z,5.33
2022-11-19T10:14:29.346Z,5.51
2022-11-19T10:17:37.686Z,5.98
2022-11-19T10:20:40.207Z,5.96
2022-11-19T10:23:45.930Z,5.89
2022-11-19T10:27:01.134Z,5.87
2022-11-19T10:30:15.494Z,5.78
2022-11-19T10:33:31.360Z,5.37
2022-11-19T10:37:09.464Z,6.19
2022-11-19T10:40:21.241Z,7.54
2022-11-19T10:43:34.876Z,8.56
2022-11-19T10:46:37.848Z,8.38
2022-11-19T10:49:42.989Z,7.90
2022-11-19T10:52:51.910Z,7.19
2022-11-19T10:56:01.476Z,7.77
2022-11-19T10:59:29.307Z,7.83
2022-11-19T11:02:36.484Z,7.04
2022-11-19T11:06:12.344Z,6.28
2022-11-19T11:09:32.511Z,5.52
2022-11-19T11:12:56.653Z,5.61
2022-11-19T11:16:04.326Z,5.46
2022-11-19T11:19:17.904Z,5.48
2022-11-19T11:22:21.161Z,5.10
2022-11-19T11:25:28.157Z,5.36
2022-11-19T11:28:31.651Z,5.24
2022-11-19T11:31:41.627Z,5.00
2022-11-19T11:34:44.710Z,4.69
2022-11-19T11:37:49.100Z,4.38
2022-11-19T11:42:02.086Z,4.14
2022-11-19T11:44:37.269Z,3.93
2022-11-19T11:47:40.491Z,3.99
2022-11-19T11:50:46.832Z,4.11
2022-11-19T11:54:23.167Z,3.77
2022-11-19T11:57:31.712Z,4.24
2022-11-19T12:00:46.206Z,4.42
2022-11-19T12:03:57.568Z,4.70
2022-11-19T12:07:20.720Z,5.50
2022-11-19T12:10:51.478Z,6.94
2022-11-19T12:13:59.543Z,8.12
2022-11-19T12:17:29.776Z,8.56
2022-11-19T12:20:51.031Z,8.82
2022-11-19T12:24:16.175Z,9.20
2022-11-19T12:27:57.600Z,8.13
2022-11-19T12:31:06.550Z,7.81
2022-11-19T12:34:47.119Z,8.21
2022-11-19T12:38:08.922Z,7.74
2022-11-19T12:41:29.194Z,7.38
2022-11-19T12:44:49.991Z,7.89
2022-11-19T12:48:02.174Z,8.84
2022-11-19T12:51:28.216Z,9.21
2022-11-19T12:54:44.780Z,9.19
2022-11-19T12:57:53.442Z,9.63
2022-11-19T13:01:01.121Z,10.26
2022-11-19T13:04:25.529Z,9.55
2022-11-19T13:07:40.299Z,8.15
2022-11-19T13:10:49.334Z,7.97
2022-11-19T13:14:03.490Z,7.91
2022-11-19T13:17:15.617Z,7.00
2022-11-19T13:20:45.353Z,6.32
2022-11-19T13:23:49.295Z,6.38
2022-11-19T13:26:52.432Z,5.80
2022-11-19T13:30:01.959Z,5.55
2022-11-19T13:33:17.829Z,5.35
2022-11-19T13:36:35.844Z,5.22
2022-11-19T13:40:01.358Z,4.93
2022-11-19T13:43:38.518Z,4.81
2022-11-19T13:46:45.553Z,4.55
2022-11-19T13:49:57.021Z,4.54
2022-11-19T13:53:13.892Z,4.48
2022-11-19T13:56:17.719Z,4.40
2022-11-19T13:59:45.088Z,4.39
2022-11-19T14:03:00.394Z,4.35
2022-11-19T14:06:33.826Z,4.22
2022-11-19T14:09:55.369Z,4.18
2022-11-19T14:13:01.290Z,4.16
2022-11-19T14:16:37.485Z,3.99
2022-11-19T14:20:16.450Z,4.03
2022-11-19T14:24:07.114Z,3.95
2022-11-19T14:27:29.434Z,3.98
2022-11-19T14:31:01.892Z,3.89
2022-11-19T14:34:27.404Z,3.97
2022-11-19T14:37:41.878Z,3.92
2022-11-19T14:40:45.470Z,3.88
2022-11-19T14:44:08.599Z,3.76
2022-11-19T14:47:28.610Z,3.80
2022-11-19T14:50:36.340Z,3.73
2022-11-19T14:53:50.258Z,3.69
2022-11-19T14:57:03.905Z,3.63
2022-11-19T15:00:29.168Z,3.65
2022-11-19T15:03:32.195Z,3.62
2022-11-19T15:06:37.592Z,3.56
2022-11-19T15:10:15.279Z,3.51
2022-11-19T15:13:18.811Z,3.57
2022-11-19T15:16:25.578Z,3.54
2022-11-19T15:19:53.038Z,3.54
2022-11-19T15:23:24.999Z,3.51
2022-11-19T15:26:49.460Z,3.55
2022-11-19T15:30:10.132Z,3.67
2022-11-19T15:33:51.643Z,3.77
2022-11-19T15:37:00.881Z,3.83
2022-11-19T15:40:07.053Z,3.97
2022-11-19T15:43:21.888Z,3.98
2022-11-19T15:46:35.784Z,3.96
2022-11-19T15:49:39.833Z,4.03
2022-11-19T15:52:58.073Z,4.06
2022-11-19T15:56:07.333Z,4.03
2022-11-19T15:59:12.900Z,4.02
2022-11-19T16:02:22.712Z,4.20
2022-11-19T16:05:32.885Z,4.27
2022-11-19T16:08:35.965Z,4.22
2022-11-19T16:11:57.353Z,4.19
2022-11-19T16:15:18.538Z,4.24
2022-11-19T16:18:21.524Z,4.29
2022-11-19T16:21:29.877Z,4.31
2022-11-19T16:24:51.477Z,4.34
2022-11-19T16:28:01.217Z,4.31
2022-11-19T16:31:05.523Z,4.48
2022-11-19T16:34:24.470Z,4.34
2022-11-19T16:37:27.634Z,4.14
2022-11-19T16:40:50.687Z,4.00
2022-11-19T16:43:54.182Z,4.05
2022-11-19T16:46:56.876Z,4.06
2022-11-19T16:50:27.734Z,4.17
2022-11-19T16:53:47.109Z,4.04
2022-11-19T16:56:50.221Z,4.17
2022-11-19T16:59:57.285Z,4.29
2022-11-19T17:03:03.257Z,4.16
2022-11-19T17:06:07.769Z,4.18
2022-11-19T17:09:28.734Z,3.91
2022-11-19T17:12:34.734Z,4.02
2022-11-19T17:15:48.350Z,3.84
2022-11-19T17:18:51.532Z,3.85
2022-11-19T17:22:21.918Z,4.00
2022-11-19T17:25:24.956Z,3.79
2022-11-19T17:28:48.472Z,3.74
2022-11-19T17:31:54.092Z,3.60
2022-11-19T17:34:59.449Z,3.57
2022-11-19T17:38:17.929Z,3.80
2022-11-19T17:41:45.869Z,3.69
2022-11-19T17:44:48.564Z,3.70
2022-11-19T17:47:51.516Z,3.82
2022-11-19T17:50:55.105Z,3.87
2022-11-19T17:53:58.439Z,3.86
2022-11-19T17:57:01.133Z,3.78
2022-11-19T18:00:04.953Z,3.89
2022-11-19T18:03:14.466Z,3.90
2022-11-19T18:06:18.748Z,3.95
2022-11-19T18:09:21.870Z,3.80
2022-11-19T18:12:24.946Z,3.91
2022-11-19T18:15:28.344Z,4.03
2022-11-19T18:18:31.695Z,4.01
2022-11-19T18:21:34.699Z,4.10
2022-11-19T18:24:37.725Z,4.09
2022-11-19T18:27:40.313Z,4.00
2022-11-19T18:30:44.236Z,4.00
2022-11-19T18:33:50.324Z,4.03
2022-11-19T18:36:53.649Z,4.12
2022-11-19T18:39:56.332Z,4.15
2022-11-19T18:43:18.461Z,3.96
2022-11-19T18:46:22.040Z,4.07
2022-11-19T18:49:25.408Z,4.04
2022-11-19T18:52:28.814Z,4.14
2022-11-19T18:55:32.153Z,4.08
2022-11-19T18:58:35.457Z,4.06
2022-11-19T19:01:39.331Z,3.99
2022-11-19T19:04:42.888Z,3.93
2022-11-19T19:07:46.364Z,3.87
2022-11-19T19:10:49.063Z,3.76
2022-11-19T19:13:52.496Z,3.83
2022-11-19T19:16:55.768Z,3.78
2022-11-19T19:19:58.889Z,3.66
2022-11-19T19:23:01.987Z,3.76
2022-11-19T19:26:05.112Z,3.87
2022-11-19T19:29:08.422Z,3.84
2022-11-19T19:32:11.901Z,3.94
2022-11-19T19:35:15.160Z,3.91
2022-11-19T19:38:18.496Z,4.06
2022-11-19T19:41:26.815Z,4.01
2022-11-19T19:44:30.572Z,4.01
2022-11-19T19:47:33.485Z,3.85
2022-11-19T19:50:36.806Z,3.88
2022-11-19T19:53:42.262Z,3.95
2022-11-19T19:56:47.712Z,4.00
2022-11-19T19:59:50.686Z,4.11
2022-11-19T20:02:53.650Z,4.12
2022-11-19T20:05:56.710Z,4.22
2022-11-19T20:09:01.243Z,4.18
2022-11-19T20:12:07.598Z,4.23
2022-11-19T20:15:10.945Z,4.32
2022-11-19T20:18:13.859Z,4.25
2022-11-19T20:21:20.652Z,4.22
2022-11-19T20:24:24.446Z,3.93
2022-11-19T20:27:27.492Z,3.95
2022-11-19T20:30:31.025Z,3.91
2022-11-19T20:33:34.875Z,4.04
2022-11-19T20:36:38.132Z,4.01
2022-11-19T20:39:41.134Z,4.27
2022-11-19T20:43:02.880Z,4.27
2022-11-19T20:46:11.917Z,4.28
2022-11-19T20:49:17.209Z,4.06
2022-11-19T20:52:22.252Z,4.25
2022-11-19T20:55:25.371Z,4.27
2022-11-19T20:58:28.844Z,4.20
2022-11-19T21:01:32.857Z,4.07
2022-11-19T21:04:37.804Z,3.99
2022-11-19T21:07:40.956Z,3.82
2022-11-19T21:10:43.922Z,3.83
2022-11-19T21:13:47.328Z,3.78
2022-11-19T21:16:50.222Z,3.99
2022-11-19T21:19:54.083Z,4.00
2022-11-19T21:22:56.788Z,3.93
2022-11-19T21:26:05.947Z,3.86
2022-11-19T21:29:09.354Z,3.91
2022-11-19T21:32:12.357Z,3.94
2022-11-19T21:35:15.007Z,3.86
2022-11-19T21:38:17.911Z,4.06
2022-11-19T21:41:20.454Z,3.98
2022-11-19T21:44:25.448Z,3.96
2022-11-19T21:47:29.308Z,3.86
2022-11-19T21:50:34.155Z,3.75
2022-11-19T21:53:36.842Z,3.77
2022-11-19T21:56:39.802Z,3.58
2022-11-19T21:59:43.617Z,3.62
2022-11-19T22:02:49.619Z,3.70
2022-11-19T22:06:00.987Z,3.79
2022-11-19T22:09:05.687Z,3.82
2022-11-19T22:12:10.636Z,3.96
2022-11-19T22:15:15.846Z,3.79
2022-11-19T22:18:20.306Z,3.59
2022-11-19T22:21:24.819Z,3.56
2022-11-19T22:27:50.379Z,3.53
2022-11-19T22:30:55.204Z,3.48
2022-11-19T22:33:57.819Z,3.39
2022-11-19T22:37:01.039Z,3.34
2022-11-19T22:40:03.828Z,3.31
2022-11-19T22:43:06.899Z,3.42
2022-11-19T22:46:14.855Z,3.48
2022-11-19T22:49:17.821Z,3.70
2022-11-19T22:52:22.097Z,3.67
2022-11-19T22:55:25.803Z,3.72
2022-11-19T22:58:28.449Z,3.54
2022-11-19T23:01:33.596Z,3.65
2022-11-19T23:04:36.196Z,3.61
2022-11-19T23:07:39.045Z,3.55
2022-11-19T23:10:41.778Z,3.24
2022-11-19T23:13:45.229Z,3.30
2022-11-19T23:16:48.087Z,3.27
2022-11-19T23:19:51.036Z,3.31
2022-11-19T23:22:53.598Z,3.32
2022-11-19T23:26:00.183Z,3.34
2022-11-19T23:29:03.503Z,3.39
2022-11-19T23:32:06.462Z,3.51
2022-11-19T23:35:09.283Z,3.53
2022-11-19T23:38:12.504Z,3.43
2022-11-19T23:41:16.716Z,3.42
2022-11-19T23:44:19.633Z,3.31
2022-11-19T23:47:22.270Z,3.25
2022-11-19T23:50:25.119Z,3.25
2022-11-19T23:53:27.861Z,3.20
2022-11-19T23:56:32.880Z,3.38
2022-11-19T23:59:36.915Z,3.13
